Tucumcari ASC Data

Date Time Air Temperature Relative Humidity Dewpoint Windchill Heat Index Wind Speed Wind Dir. Rain Solar Radiation Soil Temperature
2m 2m 3m 3m 10cm
US/Mountain F % F F F MPH deg in MJ/m^2 F
max avg avg
2021-04-08 00:05:00 49.2 42.2 27.2 49.2 49.2 1.9 4.7 3.6 141.0 71.8 0.00 0.0000000 67.0
2021-04-08 00:10:00 48.8 42.6 27.1 48.8 48.8 1.0 2.2 1.4 74.7 120.9 0.00 0.0000000 66.9
2021-04-08 00:15:00 48.4 43.3 27.1 48.4 48.4 2.4 2.4 1.7 60.5 49.3 0.00 0.0000000 66.8
2021-04-08 00:20:00 47.7 44.3 27.0 47.7 47.7 2.6 3.5 2.7 35.6 54.9 0.00 0.0000000 66.7
2021-04-08 00:25:00 47.6 44.4 27.0 47.6 47.6 1.9 3.3 2.7 24.4 11.5 0.00 0.0000000 66.5
2021-04-08 00:30:00 48.1 44.1 27.2 47.3 48.1 3.1 3.1 2.5 104.0 69.8 0.00 0.0000000 66.4
2021-04-08 00:35:00 47.7 44.4 27.0 47.7 47.7 0.0 3.5 2.0 339.9 126.4 0.00 0.0000000 66.3
2021-04-08 00:40:00 47.7 44.5 27.1 47.7 47.7 2.4 3.0 2.0 10.9 352.9 0.00 0.0000000 66.1
2021-04-08 00:45:00 48.1 44.0 27.2 47.4 48.1 3.1 3.7 3.0 11.9 37.3 0.00 0.0000000 66.0
2021-04-08 00:50:00 47.5 44.6 26.9 46.5 47.5 3.3 4.6 3.6 37.9 348.9 0.00 0.0000000 65.9
2021-04-08 00:55:00 47.2 45.3 27.1 45.5 47.2 4.2 4.6 3.8 37.7 63.2 0.00 0.0000000 65.8
2021-04-08 01:00:00 47.1 45.2 27.0 46.2 47.1 3.1 5.1 3.8 14.1 0.9 0.00 0.0000000 65.7
2021-04-08 01:05:00 46.9 46.0 27.1 45.1 46.9 4.2 4.2 2.8 346.6 348.1 0.00 0.0000000 65.6
2021-04-08 01:10:00 46.7 46.4 27.2 44.7 46.7 4.6 5.3 4.5 0.0 358.4 0.00 0.0000000 65.4
2021-04-08 01:15:00 47.2 46.3 27.6 46.2 47.2 3.3 4.6 3.8 45.4 25.4 0.00 0.0000000 65.3
2021-04-08 01:20:00 47.7 45.2 27.5 47.7 47.7 2.8 4.2 3.3 346.4 17.2 0.00 0.0000000 65.2
2021-04-08 01:25:00 46.7 47.1 27.6 46.7 46.7 2.8 3.7 2.8 7.7 3.3 0.00 0.0000000 65.0
2021-04-08 01:30:00 46.3 47.8 27.6 46.3 46.3 2.2 2.8 1.9 18.4 55.7 0.00 0.0000000 64.9
2021-04-08 01:35:00 45.7 48.6 27.5 45.7 45.7 1.2 2.1 1.4 319.1 339.3 0.00 0.0000000 64.8
2021-04-08 01:40:00 45.2 49.6 27.4 45.2 45.2 2.1 2.1 0.7 349.7 340.5 0.00 0.0000000 64.7
2021-04-08 01:45:00 45.0 50.4 27.6 45.0 45.0 0.0 2.4 0.7 8.2 53.0 0.00 0.0000000 64.6
2021-04-08 01:50:00 45.1 50.4 27.8 45.1 45.1 2.8 2.8 0.7 46.6 46.8 0.00 0.0000000 64.5
2021-04-08 01:55:00 45.4 49.9 27.8 43.6 45.4 3.8 4.2 3.1 35.5 26.1 0.00 0.0000000 64.3
2021-04-08 02:00:00 45.9 49.4 28.0 44.5 45.9 3.5 4.4 3.7 15.8 23.1 0.00 0.0000000 64.2
2021-04-08 02:05:00 46.7 48.9 28.5 44.9 46.7 4.2 5.6 4.4 1.2 27.0 0.00 0.0000000 64.1
2021-04-08 02:10:00 46.6 49.1 28.5 46.6 46.6 1.5 4.4 3.3 34.2 21.1 0.00 0.0000000 64.0
2021-04-08 02:15:00 46.2 50.5 28.9 44.3 46.2 4.2 5.1 4.0 63.1 56.6 0.00 0.0000000 63.9
2021-04-08 02:20:00 45.5 52.1 28.9 43.3 45.5 4.4 4.6 3.8 38.9 52.0 0.00 0.0000000 63.8
2021-04-08 02:25:00 45.5 51.9 28.9 43.8 45.5 3.8 4.4 3.2 3.8 9.8 0.00 0.0000000 63.7
2021-04-08 02:30:00 45.4 52.1 28.8 45.4 45.4 2.8 4.6 3.6 12.7 13.3 0.00 0.0000000 63.5
2021-04-08 02:35:00 44.4 53.7 28.7 44.4 44.4 1.9 2.8 2.0 213.7 162.1 0.00 0.0000000 63.4
2021-04-08 02:40:00 44.8 53.3 28.8 44.8 44.8 1.0 1.7 1.4 298.5 258.9 0.00 0.0000000 63.3
2021-04-08 02:45:00 44.8 52.7 28.5 44.8 44.8 1.9 2.1 1.6 309.1 298.7 0.00 0.0000000 63.2
2021-04-08 02:50:00 45.0 52.4 28.6 45.0 45.0 2.4 2.4 1.9 342.8 345.9 0.00 0.0000000 63.1
2021-04-08 02:55:00 44.0 54.1 28.4 42.2 44.0 3.7 4.0 3.4 324.9 321.2 0.00 0.0000000 63.0
2021-04-08 03:00:00 43.5 55.4 28.6 43.5 43.5 3.0 3.8 3.2 326.6 339.6 0.00 0.0000000 62.9
2021-04-08 03:05:00 44.1 55.5 29.2 42.1 44.1 4.0 4.0 3.4 337.1 330.6 0.00 0.0000000 62.8
2021-04-08 03:10:00 43.5 55.4 28.5 41.4 43.5 3.8 5.6 4.4 340.2 333.4 0.00 0.0000000 62.7
2021-04-08 03:15:00 43.0 56.7 28.7 40.3 43.0 4.6 5.3 4.3 338.9 341.8 0.00 0.0000000 62.6
2021-04-08 03:20:00 43.0 56.0 28.4 41.1 43.0 3.7 4.7 3.8 327.3 336.3 0.00 0.0000000 62.5
2021-04-08 03:25:00 43.0 55.8 28.2 41.0 43.0 3.7 4.4 3.9 344.0 342.6 0.00 0.0000000 62.4
2021-04-08 03:30:00 43.1 55.0 28.0 40.9 43.1 4.0 4.4 3.9 332.1 331.8 0.00 0.0000000 62.3
2021-04-08 03:35:00 43.3 54.8 28.1 40.8 43.3 4.4 5.5 4.5 333.1 329.6 0.00 0.0000000 62.2
2021-04-08 03:40:00 43.2 54.6 27.9 41.6 43.2 3.3 4.7 3.8 334.9 336.0 0.00 0.0000000 62.1
2021-04-08 03:45:00 43.1 53.8 27.5 40.0 43.1 5.1 5.5 4.4 327.6 329.2 0.00 0.0000000 62.0
2021-04-08 03:50:00 42.9 54.2 27.4 41.4 42.9 3.1 5.5 3.8 338.6 334.5 0.00 0.0000000 61.9
2021-04-08 03:55:00 43.3 54.3 27.9 41.1 43.3 4.0 4.2 3.6 323.2 335.2 0.00 0.0000000 61.8
2021-04-08 04:00:00 43.0 53.9 27.5 40.8 43.0 4.0 5.1 4.6 336.1 331.0 0.00 0.0000000 61.7
2021-04-08 04:05:00 42.9 53.9 27.4 40.8 42.9 3.8 4.2 3.7 319.6 327.2 0.00 0.0000000 61.6
2021-04-08 04:10:00 42.8 54.3 27.4 41.0 42.8 3.5 4.9 4.1 340.0 328.9 0.00 0.0000000 61.5
2021-04-08 04:15:00 42.8 55.1 27.8 41.2 42.8 3.3 3.8 3.3 335.3 337.3 0.00 0.0000000 61.4
2021-04-08 04:20:00 42.9 54.8 27.8 42.9 42.9 3.0 3.7 3.0 343.1 338.0 0.00 0.0000000 61.3
2021-04-08 04:25:00 42.7 55.6 27.9 42.7 42.7 2.1 3.1 2.7 344.6 339.7 0.00 0.0000000 61.2
2021-04-08 04:30:00 41.1 57.5 27.3 41.1 41.1 0.0 1.9 1.0 96.9 72.7 0.00 0.0000000 61.1
2021-04-08 04:35:00 40.5 60.4 27.8 40.5 40.5 3.0 3.5 1.3 327.7 336.7 0.00 0.0000000 61.0
2021-04-08 04:40:00 41.6 57.5 27.7 41.6 41.6 2.6 4.4 3.1 344.3 336.1 0.00 0.0000000 61.0
2021-04-08 04:45:00 41.3 58.1 27.6 39.3 41.3 3.5 3.5 1.8 323.4 12.6 0.00 0.0000000 60.9
2021-04-08 04:50:00 41.6 57.4 27.6 40.0 41.6 3.1 4.6 4.0 335.5 332.5 0.00 0.0000000 60.8
2021-04-08 04:55:00 42.1 56.4 27.7 39.3 42.1 4.4 4.7 3.9 332.3 332.5 0.00 0.0000000 60.6
2021-04-08 05:00:00 41.5 57.5 27.6 39.7 41.5 3.3 5.1 4.4 327.7 329.2 0.00 0.0000000 60.6
2021-04-08 05:05:00 41.3 58.2 27.7 41.3 41.3 1.3 3.1 2.5 306.6 319.9 0.00 0.0000000 60.5
2021-04-08 05:10:00 40.1 60.2 27.4 40.1 40.1 2.6 2.6 0.9 338.1 352.4 0.00 0.0000000 60.4
2021-04-08 05:15:00 40.7 59.2 27.6 40.7 40.7 1.3 3.5 2.5 319.0 333.2 0.00 0.0000000 60.3
2021-04-08 05:20:00 39.2 61.7 27.2 39.2 39.2 0.8 2.6 1.7 174.3 182.4 0.00 0.0000000 60.2
2021-04-08 05:25:00 38.7 63.1 27.3 38.7 38.7 1.9 2.4 1.2 211.7 217.4 0.00 0.0000000 60.1
2021-04-08 05:30:00 38.6 64.1 27.5 38.6 38.6 0.8 1.7 0.2 263.3 219.9 0.00 0.0000000 60.0
2021-04-08 05:35:00 39.5 62.2 27.6 39.5 39.5 1.9 2.6 2.0 225.7 247.6 0.00 0.0000000 59.9
2021-04-08 05:40:00 39.5 62.1 27.6 39.5 39.5 0.0 1.7 0.3 260.5 222.7 0.00 0.0000000 59.8
2021-04-08 05:45:00 39.6 61.9 27.6 39.6 39.6 1.7 1.7 0.9 142.6 141.6 0.00 0.0000000 59.7
2021-04-08 05:50:00 39.7 61.8 27.6 39.7 39.7 1.7 1.7 1.0 252.5 221.3 0.00 0.0000000 59.6
2021-04-08 05:55:00 40.0 61.1 27.6 40.0 40.0 0.0 1.5 1.1 340.7 234.3 0.00 0.0000000 59.5
2021-04-08 06:00:00 40.5 60.6 27.9 40.5 40.5 0.8 1.7 1.0 294.4 323.3 0.00 0.0000000 59.5
2021-04-08 06:05:00 40.6 59.7 27.7 40.6 40.6 0.0 1.9 0.8 137.3 184.1 0.00 0.0000000 59.3
2021-04-08 06:10:00 40.0 61.3 27.7 40.0 40.0 1.9 2.2 1.5 13.1 38.4 0.00 0.0000000 59.3
2021-04-08 06:15:00 40.5 60.4 27.9 40.5 40.5 1.2 1.9 1.5 285.8 321.9 0.00 0.0000000 59.2
2021-04-08 06:20:00 41.3 58.7 28.0 41.3 41.3 1.0 1.3 1.2 304.0 290.1 0.00 0.0000000 59.1
2021-04-08 06:25:00 42.0 57.4 28.0 40.0 42.0 3.5 3.8 2.6 319.9 313.6 0.00 0.0000000 59.0
2021-04-08 06:30:00 42.2 57.1 28.1 40.7 42.2 3.1 3.5 3.3 309.0 316.0 0.00 0.0001777 58.9
2021-04-08 06:35:00 42.6 56.2 28.1 42.6 42.6 3.0 3.3 3.1 291.1 296.8 0.00 0.0010738 58.8
2021-04-08 06:40:00 41.6 57.6 27.8 38.9 41.6 4.4 5.1 4.0 269.8 284.2 0.00 0.0025012 58.7
2021-04-08 06:45:00 40.4 60.6 27.8 37.7 40.4 4.0 4.9 4.5 253.3 264.6 0.00 0.0043606 58.6
2021-04-08 06:50:00 39.5 63.8 28.2 36.5 39.5 4.2 4.9 4.4 242.7 253.4 0.00 0.0110170 58.6
2021-04-08 06:55:00 39.7 63.2 28.2 37.3 39.7 3.7 4.7 4.0 271.1 248.8 0.00 0.0166210 58.5
2021-04-08 07:00:00 40.4 62.2 28.5 38.6 40.4 3.1 4.4 3.6 243.0 246.1 0.00 0.0214805 58.4
2021-04-08 07:05:00 40.8 61.3 28.6 37.8 40.8 4.6 4.6 3.5 243.3 247.4 0.00 0.0265007 58.4
2021-04-08 07:10:00 41.3 59.9 28.5 41.3 41.3 2.8 5.1 4.0 249.8 240.2 0.00 0.0316172 58.3
2021-04-08 07:15:00 42.3 58.3 28.7 42.3 42.3 0.0 3.5 1.4 207.9 226.7 0.00 0.0363665 58.2
2021-04-08 07:20:00 43.2 57.0 29.0 43.2 43.2 0.0 1.5 0.3 249.0 226.9 0.00 0.0412399 58.2
2021-04-08 07:25:00 44.2 55.6 29.4 44.2 44.2 1.3 1.9 0.6 296.6 285.3 0.00 0.0462479 58.2
2021-04-08 07:30:00 44.7 54.4 29.2 44.7 44.7 3.0 3.3 2.2 258.0 271.3 0.00 0.0511621 58.2
2021-04-08 07:35:00 44.9 54.1 29.3 43.4 44.9 3.5 3.7 3.0 249.0 262.9 0.00 0.0561623 58.2
2021-04-08 07:40:00 45.5 53.6 29.6 43.8 45.5 3.8 4.6 3.4 275.1 272.5 0.00 0.0613719 58.1
2021-04-08 07:45:00 46.2 51.9 29.6 44.6 46.2 3.8 4.6 3.9 292.4 286.8 0.00 0.0668330 58.2
2021-04-08 07:50:00 46.7 52.5 30.2 44.9 46.7 4.2 5.3 4.4 282.7 279.8 0.00 0.0722127 58.2
2021-04-08 07:55:00 47.1 50.4 29.6 43.9 47.1 6.5 7.6 6.0 266.0 278.4 0.00 0.0775740 58.3
2021-04-08 08:00:00 47.6 50.5 30.1 45.0 47.6 5.6 6.9 5.9 259.6 266.7 0.00 0.0830657 58.4
2021-04-08 08:05:00 48.5 49.1 30.2 45.5 48.5 6.5 7.1 6.2 253.4 254.4 0.00 0.0885790 58.5
2021-04-08 08:10:00 49.3 47.2 30.0 46.0 49.3 7.8 7.8 6.2 255.2 247.7 0.00 0.0940809 58.6
2021-04-08 08:15:00 50.0 45.0 29.5 50.0 50.0 7.4 8.8 7.1 249.6 249.1 0.00 0.0995510 58.7
2021-04-08 08:20:00 50.8 44.7 30.0 50.8 50.8 5.1 8.5 6.7 254.2 256.3 0.00 0.1050385 58.8
2021-04-08 08:25:00 51.5 43.2 29.8 51.5 51.5 7.1 7.6 6.1 244.4 253.7 0.00 0.1106510 58.9
2021-04-08 08:30:00 52.0 42.3 29.8 52.0 52.0 6.7 8.7 6.7 236.6 251.8 0.00 0.1162008 59.1
2021-04-08 08:35:00 52.2 43.0 30.3 52.2 52.2 8.3 8.3 7.0 235.6 237.7 0.00 0.1216032 59.2
2021-04-08 08:40:00 52.6 41.9 30.1 52.6 52.6 7.8 9.6 7.2 237.2 236.6 0.00 0.1272256 59.3
2021-04-08 08:45:00 52.9 42.1 30.5 52.9 52.9 4.4 7.8 6.2 259.6 235.0 0.00 0.1326976 59.5
2021-04-08 08:50:00 53.8 40.9 30.6 53.8 53.8 6.0 7.6 5.7 225.8 248.1 0.00 0.1383963 59.6
2021-04-08 08:55:00 53.9 40.2 30.2 53.9 53.9 7.2 9.2 6.6 231.2 244.2 0.00 0.1437029 59.8
2021-04-08 09:00:00 54.4 39.2 30.1 54.4 54.4 5.6 9.0 7.0 265.0 244.7 0.00 0.1492023 60.1
2021-04-08 09:05:00 54.9 38.8 30.2 54.9 54.9 4.7 7.8 5.7 251.8 237.0 0.00 0.1542543 60.3
2021-04-08 09:10:00 56.1 37.2 30.3 56.1 56.1 6.0 7.6 5.8 238.1 237.7 0.00 0.1596698 60.5
2021-04-08 09:15:00 56.3 35.7 29.5 56.3 56.3 4.6 9.0 6.2 258.9 221.3 0.00 0.1649352 60.8
2021-04-08 09:20:00 56.9 35.8 30.0 56.9 56.9 5.1 7.2 5.1 225.8 226.7 0.00 0.1701417 61.0
2021-04-08 09:25:00 57.7 34.6 29.9 57.7 57.7 5.3 6.9 4.1 212.0 233.9 0.00 0.1756038 61.3
2021-04-08 09:30:00 58.0 34.5 30.1 58.0 58.0 4.6 8.7 4.9 203.6 224.8 0.00 0.1802466 61.5
2021-04-08 09:35:00 58.3 32.0 28.5 58.3 58.3 7.4 9.4 6.9 194.0 186.2 0.00 0.1856332 61.9
2021-04-08 09:40:00 58.4 31.3 28.1 58.4 58.4 5.8 11.5 7.6 178.0 194.4 0.00 0.1907973 62.1
2021-04-08 09:45:00 58.8 30.5 27.8 58.8 58.8 7.6 10.8 8.4 162.8 189.2 0.00 0.1960132 62.4
2021-04-08 09:50:00 59.1 30.5 28.0 59.1 59.1 7.8 12.6 9.4 218.9 217.8 0.00 0.2009794 62.7
2021-04-08 09:55:00 59.7 30.5 28.6 59.7 59.7 9.7 9.9 7.1 179.4 218.8 0.00 0.2055246 63.0
2021-04-08 10:00:00 60.1 30.6 29.0 60.1 60.1 6.9 11.2 7.9 212.3 212.0 0.00 0.2100533 63.3
2021-04-08 10:05:00 60.6 29.7 28.8 60.6 60.6 8.3 13.1 6.9 234.7 208.0 0.00 0.2145745 63.5
2021-04-08 10:10:00 60.0 30.1 28.6 60.0 60.0 7.4 11.5 8.0 227.3 222.3 0.00 0.2188000 63.8
2021-04-08 10:15:00 60.5 29.9 28.9 60.5 60.5 7.8 11.2 8.1 246.2 215.9 0.00 0.2232926 64.0
2021-04-08 10:20:00 61.2 30.1 29.6 61.2 61.2 9.4 9.7 7.3 213.1 203.6 0.00 0.2275402 64.1
2021-04-08 10:25:00 62.3 27.9 28.7 62.3 62.3 4.0 11.3 7.7 250.6 213.7 0.00 0.2318767 64.3
2021-04-08 10:30:00 62.2 28.6 29.2 62.2 62.2 6.5 9.7 6.4 180.5 197.0 0.00 0.2354903 64.5
2021-04-08 10:35:00 63.1 27.9 29.4 63.1 63.1 8.0 11.5 7.9 252.1 219.8 0.00 0.2395260 64.6
2021-04-08 10:40:00 63.8 26.6 28.8 63.8 63.8 9.7 9.7 6.7 188.8 212.9 0.00 0.2436409 64.8
2021-04-08 10:45:00 64.1 26.0 28.5 64.1 64.1 10.8 10.8 6.5 172.8 203.8 0.00 0.2474225 65.0
2021-04-08 10:50:00 63.6 26.2 28.2 63.6 63.6 8.1 10.1 8.1 253.4 205.9 0.00 0.2510168 65.3
2021-04-08 10:55:00 63.9 25.5 27.8 63.9 63.9 8.0 11.5 7.3 221.4 240.5 0.00 0.2547445 65.6
2021-04-08 11:00:00 65.2 24.3 27.8 65.2 65.2 8.7 11.3 9.3 217.5 220.3 0.00 0.2580393 66.0
2021-04-08 11:05:00 64.9 24.7 28.0 64.9 64.9 7.2 8.1 5.2 235.8 244.8 0.00 0.2610506 66.4
2021-04-08 11:10:00 65.8 23.8 27.8 65.8 65.8 6.3 9.6 6.9 236.2 225.8 0.00 0.2638096 66.7
2021-04-08 11:15:00 66.1 23.8 28.0 66.1 66.1 4.9 8.3 5.6 277.8 202.8 0.00 0.2667463 67.1
2021-04-08 11:20:00 66.6 22.3 26.9 66.6 66.6 5.8 10.1 6.3 170.5 216.8 0.00 0.2696569 67.5
2021-04-08 11:25:00 67.2 22.3 27.3 67.2 67.2 8.1 12.1 7.4 214.2 227.5 0.00 0.2730510 67.9
2021-04-08 11:30:00 68.2 21.7 27.6 68.2 68.2 5.5 10.3 6.6 173.0 190.0 0.00 0.2758533 68.3
2021-04-08 11:35:00 68.9 20.7 27.0 68.9 68.9 8.0 8.1 4.3 226.3 197.1 0.00 0.2781761 68.7
2021-04-08 11:40:00 68.3 20.5 26.3 68.3 68.3 5.6 9.7 7.2 179.6 171.5 0.00 0.2806272 69.1
2021-04-08 11:45:00 68.2 20.0 25.6 68.2 68.2 7.8 12.6 7.1 206.4 208.0 0.00 0.2821740 69.5
2021-04-08 11:50:00 69.3 18.8 25.1 69.3 69.3 4.7 11.9 6.6 226.9 205.0 0.00 0.2840756 69.9
2021-04-08 11:55:00 70.5 18.4 25.5 70.5 70.5 10.5 10.5 7.3 162.3 191.9 0.00 0.2869897 70.3
2021-04-08 12:00:00 70.0 17.8 24.2 70.0 70.0 5.6 11.3 7.7 171.4 193.5 0.00 0.2874793 70.7
2021-04-08 12:05:00 71.2 17.2 24.5 71.2 71.2 7.1 11.0 6.9 173.9 180.8 0.00 0.2900710 71.1
2021-04-08 12:10:00 72.1 16.5 24.2 72.1 72.1 9.6 13.3 7.6 216.2 206.8 0.00 0.2909490 71.5
2021-04-08 12:15:00 71.1 17.7 25.1 71.1 71.1 4.0 8.7 6.0 103.6 171.1 0.00 0.2919168 71.8
2021-04-08 12:20:00 71.3 17.7 25.1 71.3 71.3 5.3 11.3 5.6 271.3 227.4 0.00 0.2928485 72.2
2021-04-08 12:25:00 71.7 16.2 23.4 71.7 71.7 2.4 10.3 6.6 173.4 196.7 0.00 0.2952179 72.5
2021-04-08 12:30:00 72.1 16.4 24.0 72.1 72.1 3.8 10.6 6.0 231.0 172.7 0.00 0.2946856 72.9
2021-04-08 12:35:00 72.7 15.8 23.7 72.7 72.7 7.4 8.3 5.6 235.0 203.5 0.00 0.2965897 73.3
2021-04-08 12:40:00 73.3 14.6 22.2 73.3 73.3 8.8 9.0 6.2 159.5 186.6 0.00 0.2958787 73.6
2021-04-08 12:45:00 73.7 14.5 22.3 73.7 73.7 4.4 14.2 8.9 270.9 199.8 0.00 0.2973552 74.0
2021-04-08 12:50:00 73.9 12.4 18.8 73.9 73.9 6.9 9.7 6.5 208.2 219.3 0.00 0.2965284 74.4
2021-04-08 12:55:00 74.3 12.3 18.8 74.3 74.3 9.2 10.3 7.0 228.4 211.9 0.00 0.2975898 74.7
2021-04-08 13:00:00 73.6 11.0 15.8 73.6 73.6 7.1 11.0 6.7 263.6 239.0 0.00 0.2981348 75.0
2021-04-08 13:05:00 73.2 11.7 17.0 73.2 73.2 6.3 14.0 9.1 277.5 265.8 0.00 0.2984673 75.4
2021-04-08 13:10:00 74.3 10.1 14.4 74.3 74.3 7.8 15.8 10.0 228.4 239.0 0.00 0.2992360 75.7
2021-04-08 13:15:00 74.3 10.6 15.6 74.3 74.3 4.4 10.6 6.4 246.1 213.3 0.00 0.2970739 76.0
2021-04-08 13:20:00 75.0 10.2 15.1 75.0 75.0 9.0 13.5 8.6 253.5 233.7 0.00 0.2970623 76.3
2021-04-08 13:25:00 74.4 10.3 14.8 74.4 74.4 9.4 12.4 7.9 253.7 250.2 0.00 0.2969752 76.6
2021-04-08 13:30:00 75.1 9.5 13.5 75.1 75.1 7.8 13.3 9.4 235.9 232.1 0.00 0.2966549 76.9
2021-04-08 13:35:00 74.5 10.2 14.8 74.5 74.5 6.5 10.1 6.5 205.0 235.2 0.00 0.2949592 77.1
2021-04-08 13:40:00 74.5 10.1 14.5 74.5 74.5 4.7 10.8 6.9 151.8 192.4 0.00 0.2928635 77.4
2021-04-08 13:45:00 74.7 10.7 16.1 74.7 74.7 4.9 7.4 5.5 263.0 247.7 0.00 0.2917117 77.7
2021-04-08 13:50:00 75.3 10.2 15.5 75.3 75.3 4.9 10.6 6.8 245.2 233.1 0.00 0.2899126 77.9
2021-04-08 13:55:00 74.9 10.2 15.1 74.9 74.9 8.0 14.7 9.2 202.4 205.6 0.00 0.2885760 78.2
2021-04-08 14:00:00 74.9 9.6 13.6 74.9 74.9 2.6 8.7 4.5 267.1 216.3 0.00 0.2885085 78.4
2021-04-08 14:05:00 75.5 9.1 12.8 75.5 75.5 4.6 13.5 6.8 172.2 169.2 0.00 0.2896974 78.7
2021-04-08 14:10:00 75.9 9.7 14.6 75.9 75.9 6.5 10.3 5.4 172.0 184.5 0.00 0.2883934 78.9
2021-04-08 14:15:00 76.2 8.8 12.8 76.2 76.2 3.7 8.8 6.0 163.0 177.1 0.00 0.2860366 79.1
2021-04-08 14:20:00 75.2 8.6 11.3 75.2 75.2 5.8 9.4 6.2 144.9 157.2 0.00 0.2718406 79.4
2021-04-08 14:25:00 75.0 8.7 11.7 75.0 75.0 2.8 7.8 4.9 26.1 112.3 0.00 0.2470371 79.6
2021-04-08 14:30:00 75.7 8.7 12.1 75.7 75.7 6.3 9.7 5.5 127.6 146.6 0.00 0.2656377 79.8
2021-04-08 14:35:00 75.7 9.1 13.0 75.7 75.7 8.1 13.9 7.5 147.8 119.5 0.00 0.2736492 80.0
2021-04-08 14:40:00 75.7 9.2 13.3 75.7 75.7 5.1 12.1 7.9 140.1 156.1 0.00 0.2366443 80.1
2021-04-08 14:45:00 77.2 9.1 14.2 77.2 77.2 2.4 4.9 2.1 129.7 203.6 0.00 0.2407226 80.3
2021-04-08 14:50:00 76.3 9.0 13.3 76.3 76.3 1.7 10.3 5.8 127.1 130.5 0.00 0.2387263 80.4
2021-04-08 14:55:00 77.2 8.8 13.5 77.2 77.2 9.7 11.3 6.6 113.1 111.9 0.00 0.2377211 80.6
2021-04-08 15:00:00 77.4 9.0 14.0 77.4 77.4 8.5 10.1 6.6 136.1 120.2 0.00 0.2330845 80.7
2021-04-08 15:05:00 77.6 9.3 15.0 77.6 77.6 6.7 10.5 6.3 105.5 109.8 0.00 0.1994855 80.8
2021-04-08 15:10:00 77.4 9.0 14.0 77.4 77.4 5.6 9.4 6.5 100.7 95.1 0.00 0.2065244 80.9
2021-04-08 15:15:00 77.6 8.6 13.3 77.6 77.6 9.2 11.9 7.0 71.3 72.7 0.00 0.1884118 81.0
2021-04-08 15:20:00 77.1 8.5 12.5 77.1 77.1 5.8 12.2 8.8 38.0 63.4 0.00 0.2015035 81.0
2021-04-08 15:25:00 77.4 8.6 13.0 77.4 77.4 4.2 8.7 6.3 167.6 119.1 0.00 0.1928814 81.1
2021-04-08 15:30:00 77.7 8.5 12.9 77.7 77.7 5.5 11.3 6.7 122.3 112.5 0.00 0.1540124 81.1
2021-04-08 15:35:00 76.9 8.5 12.5 76.9 76.9 5.8 9.6 7.3 150.0 129.8 0.00 0.1415946 81.1
2021-04-08 15:40:00 78.0 8.6 13.6 78.0 78.0 7.2 8.5 4.9 111.0 108.3 0.00 0.1702405 81.1
2021-04-08 15:45:00 77.7 8.7 13.5 77.7 77.7 8.0 8.3 6.0 64.6 88.3 0.00 0.1729380 81.0
2021-04-08 15:50:00 78.0 9.0 14.7 78.0 78.0 1.7 9.0 5.6 125.4 85.5 0.00 0.1589573 81.0
2021-04-08 15:55:00 78.5 8.5 13.6 78.5 78.5 2.8 11.3 6.9 96.0 90.5 0.00 0.1456784 80.9
2021-04-08 16:00:00 78.4 8.1 12.5 78.4 78.4 6.9 7.8 5.8 50.2 92.7 0.00 0.1490018 80.9
2021-04-08 16:05:00 78.1 8.1 12.1 78.1 78.1 1.3 6.9 3.7 107.6 85.4 0.00 0.1570972 80.8
2021-04-08 16:10:00 78.8 8.4 13.7 78.8 78.8 5.5 11.3 5.7 121.1 87.7 0.00 0.1796193 80.7
2021-04-08 16:15:00 78.4 8.3 13.0 78.4 78.4 7.8 13.3 9.7 69.9 97.1 0.00 0.1548407 80.6
2021-04-08 16:20:00 78.4 8.5 13.7 78.4 78.4 9.6 11.9 9.0 95.0 78.5 0.00 0.1365090 80.5
2021-04-08 16:25:00 78.2 8.2 12.5 78.2 78.2 5.1 13.0 8.9 98.2 74.3 0.00 0.1696840 80.4
2021-04-08 16:30:00 79.1 8.3 13.4 79.1 79.1 9.7 11.7 8.3 113.6 109.1 0.00 0.1747689 80.3
2021-04-08 16:35:00 78.5 8.2 12.8 78.5 78.5 6.0 13.7 9.8 62.7 93.1 0.00 0.1490911 80.2
2021-04-08 16:40:00 78.4 8.2 12.7 78.4 78.4 9.2 14.2 9.6 125.1 110.0 0.00 0.1409528 80.1
2021-04-08 16:45:00 78.4 8.5 13.6 78.4 78.4 8.1 14.4 9.5 100.9 107.1 0.00 0.1424497 80.0
2021-04-08 16:50:00 79.1 8.2 13.3 79.1 79.1 10.1 12.6 7.3 105.8 95.1 0.00 0.1265790 80.0
2021-04-08 16:55:00 79.2 8.2 13.4 79.2 79.2 10.3 11.3 8.8 80.4 98.5 0.00 0.1515533 79.8
2021-04-08 17:00:00 78.4 8.5 13.4 78.4 78.4 8.0 11.5 8.7 119.3 116.7 0.00 0.1032252 79.8
2021-04-08 17:05:00 78.4 8.5 13.4 78.4 78.4 8.7 9.6 7.4 131.7 119.8 0.00 0.0979850 79.6
2021-04-08 17:10:00 78.0 8.4 12.8 78.0 78.0 5.5 11.7 8.0 78.0 97.3 0.00 0.0763561 79.6
2021-04-08 17:15:00 78.4 8.5 13.5 78.4 78.4 8.3 10.3 7.7 86.9 104.5 0.00 0.1090897 79.4
2021-04-08 17:20:00 78.8 8.1 12.7 78.8 78.8 9.9 10.6 6.1 92.5 92.6 0.00 0.0956214 79.4
2021-04-08 17:25:00 77.7 8.2 12.1 77.7 77.7 4.0 11.0 6.2 28.6 51.1 0.00 0.0404892 79.3
2021-04-08 17:30:00 77.5 8.4 12.7 77.5 77.5 3.7 5.8 3.8 111.1 80.0 0.00 0.0406500 79.2
2021-04-08 17:35:00 77.8 8.7 13.8 77.8 77.8 3.5 5.3 3.6 143.9 125.7 0.00 0.0689586 79.0
2021-04-08 17:40:00 77.9 8.8 14.0 77.9 77.9 6.3 7.1 4.4 115.6 125.0 0.00 0.0633522 78.9
2021-04-08 17:45:00 77.4 8.7 13.3 77.4 77.4 4.6 6.0 4.8 108.7 119.8 0.00 0.0365363 78.8
2021-04-08 17:50:00 77.2 9.0 14.1 77.2 77.2 3.0 5.3 3.6 98.3 115.3 0.00 0.0363755 78.6
2021-04-08 17:55:00 77.0 9.0 13.7 77.0 77.0 5.3 5.6 3.6 117.9 118.6 0.00 0.0300784 78.5
2021-04-08 18:00:00 76.6 9.6 14.9 76.6 76.6 2.4 5.3 3.4 84.2 102.8 0.00 0.0277008 78.4
2021-04-08 18:05:00 76.2 9.6 14.6 76.2 76.2 3.7 3.7 2.1 112.6 85.9 0.00 0.0280600 78.2
2021-04-08 18:10:00 76.2 9.4 14.3 76.2 76.2 3.3 6.5 4.1 92.9 100.2 0.00 0.0248035 78.1
2021-04-08 18:15:00 76.2 8.9 13.0 76.2 76.2 2.2 3.7 2.9 86.6 85.5 0.00 0.0218091 77.9
2021-04-08 18:20:00 76.2 10.0 15.5 76.2 76.2 0.8 2.6 1.7 74.2 86.4 0.00 0.0212438 77.8
2021-04-08 18:25:00 75.4 10.4 15.9 75.4 75.4 3.5 3.8 2.7 91.2 84.2 0.00 0.0213223 77.6
2021-04-08 18:30:00 75.2 11.2 17.4 75.2 75.2 3.5 3.8 3.0 57.1 70.7 0.00 0.0315609 77.5
2021-04-08 18:35:00 75.6 10.2 15.7 75.6 75.6 3.1 4.7 3.5 77.6 77.0 0.00 0.0242848 77.3
2021-04-08 18:40:00 75.7 10.3 15.9 75.7 75.7 5.3 6.0 4.6 90.5 97.6 0.00 0.0386711 77.1
2021-04-08 18:45:00 76.0 10.6 16.9 76.0 76.0 4.7 5.3 4.0 102.1 96.8 0.00 0.0409744 77.0
2021-04-08 18:50:00 75.8 10.6 16.8 75.8 75.8 3.1 7.2 5.4 61.0 88.3 0.00 0.0367293 76.8
2021-04-08 18:55:00 75.7 10.4 16.2 75.7 75.7 3.7 6.3 4.1 127.4 107.9 0.00 0.0325255 76.7
2021-04-08 19:00:00 75.3 10.4 15.7 75.3 75.3 8.8 8.8 4.2 102.2 100.4 0.00 0.0270619 76.6
2021-04-08 19:05:00 74.5 10.8 16.0 74.5 74.5 5.3 8.7 6.0 129.8 117.8 0.00 0.0180036 76.4
2021-04-08 19:10:00 74.2 10.6 15.4 74.2 74.2 8.5 9.7 6.7 127.1 112.3 0.00 0.0102653 76.3
2021-04-08 19:15:00 74.8 9.7 13.9 74.8 74.8 9.6 12.4 6.8 109.3 110.0 0.00 0.0043431 76.2
2021-04-08 19:20:00 75.4 9.5 13.8 75.4 75.4 8.0 15.1 8.3 153.9 156.9 0.00 0.0009945 76.0
2021-04-08 19:25:00 74.2 9.9 13.9 74.2 74.2 14.6 15.1 8.7 177.4 192.7 0.00 0.0000129 75.9
2021-04-08 19:30:00 74.3 10.1 14.4 74.3 74.3 4.7 13.3 5.8 149.8 172.2 0.00 0.0000174 75.7
2021-04-08 19:35:00 73.9 10.3 14.6 73.9 73.9 3.8 7.4 5.0 242.2 201.3 0.00 0.0000000 75.6
2021-04-08 19:40:00 73.5 9.9 13.4 73.5 73.5 9.4 11.0 7.8 265.4 268.0 0.00 0.0000000 75.4
2021-04-08 19:45:00 74.5 9.6 13.3 74.5 74.5 12.8 14.2 10.3 256.9 254.7 0.00 0.0000000 75.3
2021-04-08 19:50:00 74.8 9.6 13.5 74.8 74.8 11.7 14.4 11.6 254.2 258.3 0.00 0.0000000 75.1
2021-04-08 19:55:00 74.7 9.6 13.4 74.7 74.7 12.4 13.5 11.4 250.9 258.6 0.00 0.0000000 74.9
2021-04-08 20:00:00 74.4 9.7 13.5 74.4 74.4 11.0 13.9 11.0 259.5 262.4 0.00 0.0000000 74.8
2021-04-08 20:05:00 73.5 10.1 13.8 73.5 73.5 10.3 11.2 9.6 271.3 261.3 0.00 0.0000000 74.6
2021-04-08 20:10:00 73.1 10.3 13.9 73.1 73.1 8.0 10.6 9.2 262.8 260.0 0.00 0.0000000 74.5
2021-04-08 20:15:00 72.9 10.5 14.3 72.9 72.9 8.5 10.8 9.0 261.3 258.6 0.00 0.0000000 74.3
2021-04-08 20:20:00 72.8 10.7 14.4 72.8 72.8 8.7 11.7 9.1 259.7 258.4 0.00 0.0000000 74.2
2021-04-08 20:25:00 72.4 10.8 14.5 72.4 72.4 9.6 10.8 8.5 258.4 253.7 0.00 0.0000000 74.1
2021-04-08 20:30:00 72.7 10.7 14.4 72.7 72.7 9.0 15.3 9.8 275.4 257.7 0.00 0.0000000 73.9
2021-04-08 20:35:00 72.6 10.8 14.6 72.6 72.6 7.8 11.2 8.6 258.7 261.5 0.00 0.0000000 73.8
2021-04-08 20:40:00 72.6 10.7 14.3 72.6 72.6 9.2 9.9 8.4 270.4 266.8 0.00 0.0000000 73.7
2021-04-08 20:45:00 71.9 11.1 14.6 71.9 71.9 4.7 8.7 6.7 294.7 278.4 0.00 0.0000000 73.6
2021-04-08 20:50:00 70.8 11.7 15.2 70.8 70.8 3.5 4.9 3.4 282.9 300.1 0.00 0.0000000 73.4
2021-04-08 20:55:00 70.6 11.5 14.5 70.6 70.6 1.7 3.5 2.2 326.4 337.2 0.00 0.0000000 73.3
2021-04-08 21:00:00 70.8 11.4 14.5 70.8 70.8 0.0 2.8 0.5 319.2 319.4 0.00 0.0000000 73.2
2021-04-08 21:05:00 70.6 11.5 14.5 70.6 70.6 2.6 4.7 1.5 342.1 336.0 0.00 0.0000000 73.0
2021-04-08 21:10:00 69.3 12.5 15.4 69.3 69.3 4.0 5.5 4.2 295.3 303.7 0.00 0.0000000 72.9
2021-04-08 21:15:00 68.3 13.3 16.1 68.3 68.3 5.6 6.2 4.8 286.4 292.6 0.00 0.0000000 72.8
2021-04-08 21:20:00 66.9 14.3 16.5 66.9 66.9 5.1 6.9 5.8 266.9 278.2 0.00 0.0000000 72.6
2021-04-08 21:25:00 65.3 14.8 16.1 65.3 65.3 3.3 4.9 3.7 265.5 261.7 0.00 0.0000000 72.4
2021-04-08 21:30:00 65.8 14.4 15.9 65.8 65.8 1.3 3.7 2.8 308.3 274.3 0.00 0.0000000 72.3
2021-04-08 21:35:00 65.4 15.0 16.4 65.4 65.4 2.6 3.8 2.4 274.1 280.1 0.00 0.0000000 72.1
2021-04-08 21:40:00 65.0 15.0 16.2 65.0 65.0 3.0 3.0 2.3 277.9 276.3 0.00 0.0000000 72.0
2021-04-08 21:45:00 65.8 14.2 15.5 65.8 65.8 0.0 3.8 1.9 273.9 257.4 0.00 0.0000000 71.8
2021-04-08 21:50:00 65.7 14.7 16.3 65.7 65.7 2.8 2.8 0.3 310.7 303.8 0.00 0.0000000 71.7
2021-04-08 21:55:00 65.7 15.0 16.7 65.7 65.7 4.2 5.6 4.2 334.9 312.2 0.00 0.0000000 71.5
2021-04-08 22:00:00 65.5 15.0 16.5 65.5 65.5 5.3 5.5 5.0 315.8 319.2 0.00 0.0000000 71.4
2021-04-08 22:05:00 65.0 15.4 16.9 65.0 65.0 4.0 6.7 4.6 347.5 352.3 0.00 0.0000000 71.2
2021-04-08 22:10:00 64.5 15.9 17.1 64.5 64.5 4.0 6.2 5.0 315.2 329.8 0.00 0.0000000 71.1
2021-04-08 22:15:00 64.2 16.0 17.0 64.2 64.2 6.7 7.1 4.9 332.2 333.1 0.00 0.0000000 71.0
2021-04-08 22:20:00 63.9 16.3 17.2 63.9 63.9 4.7 6.7 5.1 322.7 330.7 0.00 0.0000000 70.8
2021-04-08 22:25:00 63.6 16.5 17.3 63.6 63.6 5.5 6.3 5.6 326.5 326.8 0.00 0.0000000 70.7
2021-04-08 22:30:00 63.4 16.6 17.2 63.4 63.4 4.6 6.0 4.8 322.6 333.9 0.00 0.0000000 70.5
2021-04-08 22:35:00 63.2 16.9 17.6 63.2 63.2 5.8 5.8 4.8 324.9 329.7 0.00 0.0000000 70.4
2021-04-08 22:40:00 63.2 17.1 17.7 63.2 63.2 6.0 6.3 5.1 324.6 330.2 0.00 0.0000000 70.3
2021-04-08 22:45:00 62.9 17.3 17.8 62.9 62.9 5.6 6.0 5.1 326.9 328.7 0.00 0.0000000 70.2
2021-04-08 22:50:00 62.6 17.9 18.3 62.6 62.6 5.6 6.2 5.5 346.3 329.2 0.00 0.0000000 70.1
2021-04-08 22:55:00 63.0 17.2 17.8 63.0 63.0 4.4 5.5 4.5 347.9 342.0 0.00 0.0000000 69.9
2021-04-08 23:00:00 62.7 17.6 18.1 62.7 62.7 4.6 5.8 4.7 337.5 333.5 0.00 0.0000000 69.8
2021-04-08 23:05:00 62.4 18.2 18.6 62.4 62.4 4.7 5.3 4.0 342.9 336.7 0.00 0.0000000 69.7
2021-04-08 23:10:00 62.7 18.4 19.0 62.7 62.7 4.9 6.2 4.4 324.6 336.6 0.00 0.0000000 69.6
2021-04-08 23:15:00 61.6 19.6 19.7 61.6 61.6 5.6 6.0 4.3 331.4 330.4 0.00 0.0000000 69.5
2021-04-08 23:20:00 60.9 19.5 18.9 60.9 60.9 3.7 5.5 4.2 12.3 337.1 0.00 0.0000000 69.4
2021-04-08 23:25:00 62.2 18.4 18.6 62.2 62.2 4.9 5.8 4.4 345.4 6.3 0.00 0.0000000 69.3
2021-04-08 23:30:00 63.1 17.3 17.9 63.1 63.1 4.4 6.3 5.1 13.7 12.5 0.00 0.0000000 69.2
2021-04-08 23:35:00 63.2 18.4 19.5 63.2 63.2 5.8 7.2 5.1 297.0 343.3 0.00 0.0000000 69.1
2021-04-08 23:40:00 59.8 21.1 19.9 59.8 59.8 4.7 6.2 4.9 296.6 285.0 0.00 0.0000000 69.0
2021-04-08 23:45:00 59.5 20.7 19.2 59.5 59.5 3.0 5.3 3.9 327.1 314.3 0.00 0.0000000 68.9
2021-04-08 23:50:00 61.4 18.5 18.1 61.4 61.4 3.8 4.2 3.6 310.4 307.8 0.00 0.0000000 68.8
2021-04-08 23:55:00 62.7 17.0 17.2 62.7 62.7 4.2 4.7 3.8 317.3 313.7 0.00 0.0000000 68.7
2021-04-09 00:00:00 62.6 17.1 17.3 62.6 62.6 4.0 4.6 3.7 305.4 311.6 0.00 0.0000000 68.6

Data is courtesy of the NM Climate Center. DO NOT USE IN LEGAL PROCEEDINGS.